Time;durP1;ratioP1;P1;durP2;ratioP2;P2;SDS_P1;SDS_P2;PMS_P1;PMS_P2;Temp;Humidity;BMP_temperature;BMP_pressure;BME280_temperature;BME280_humidity;BME280_pressure;Samples;Min_cycle;Max_cycle;Signal;HPM_P1;HPM_P2
2022/05/21 00:01:05;;;;;;;3.23;1.80;;;;;;;;;;5052951;28;20305;-89
2022/05/21 00:03:32;;;;;;;2.73;1.57;;;;;;;;;;5052851;28;20233;-89
2022/05/21 00:05:59;;;;;;;1.83;1.60;;;;;;;;;;5052909;28;20722;-90
2022/05/21 00:08:26;;;;;;;1.57;1.47;;;;;;;;;;5052399;28;20230;-90
2022/05/21 00:10:55;;;;;;;1.60;1.50;;;;;;;;;;5053233;28;20210;-90
2022/05/21 00:13:22;;;;;;;1.47;1.37;;;;;;;;;;5052610;28;20240;-89
2022/05/21 00:15:49;;;;;;;6.10;1.40;;;;;;;;;;5053251;28;20566;-89
2022/05/21 00:18:16;;;;;;;1.30;1.30;;;;;;;;;;5052249;28;20226;-90
2022/05/21 00:20:49;;;;;;;1.10;1.10;;;;;;;;;;5052949;28;20209;-89
2022/05/21 00:23:18;;;;;;;2.90;1.60;;;;;;;;;;5052313;28;20309;-89
2022/05/21 00:25:46;;;;;;;2.20;1.50;;;;;;;;;;5052965;28;20225;-89
2022/05/21 00:28:14;;;;;;;1.47;1.37;;;;;;;;;;5052563;28;20237;-89
2022/05/21 00:30:41;;;;;;;1.60;1.50;;;;;;;;;;5052595;28;20621;-89
2022/05/21 00:33:12;;;;;;;1.70;1.50;;;;;;;;;;5052051;28;20644;-89
2022/05/21 00:35:39;;;;;;;1.70;1.60;;;;;;;;;;5052407;28;20213;-90
2022/05/21 00:38:07;;;;;;;4.20;1.67;;;;;;;;;;5052459;28;20593;-89
2022/05/21 00:40:35;;;;;;;3.27;1.70;;;;;;;;;;5053341;28;20264;-89
2022/05/21 00:43:02;;;;;;;2.53;1.97;;;;;;;;;;5053016;28;20222;-89
2022/05/21 00:45:31;;;;;;;2.43;1.50;;;;;;;;;;5052666;28;20283;-90
2022/05/21 00:47:58;;;;;;;2.03;1.30;;;;;;;;;;5052384;28;20260;-89
2022/05/21 00:50:27;;;;;;;4.57;1.37;;;;;;;;;;5052488;28;20202;-90
2022/05/21 00:52:54;;;;;;;3.17;1.47;;;;;;;;;;5051732;28;20272;-89
2022/05/21 00:55:27;;;;;;;3.30;1.27;;;;;;;;;;5051659;28;20206;-89
2022/05/21 01:00:40;;;;;;;2.47;1.40;;;;;;;;;;5050790;28;20545;-89
2022/05/21 01:03:07;;;;;;;1.50;1.40;;;;;;;;;;5055645;28;20633;-89
2022/05/21 01:05:36;;;;;;;4.77;1.47;;;;;;;;;;5055712;28;20299;-89
2022/05/21 01:08:03;;;;;;;1.23;1.10;;;;;;;;;;5052631;28;20206;-89
2022/05/21 01:10:33;;;;;;;1.83;1.30;;;;;;;;;;5055597;28;20283;-87
2022/05/21 01:13:02;;;;;;;2.10;1.30;;;;;;;;;;5055031;28;20229;-89
2022/05/21 01:15:30;;;;;;;1.93;1.20;;;;;;;;;;5056062;28;20245;-90
2022/05/21 01:18:01;;;;;;;1.30;1.30;;;;;;;;;;5055203;28;20209;-88
2022/05/21 01:20:36;;;;;;;1.97;1.40;;;;;;;;;;5055265;28;20190;-90
2022/05/21 01:23:04;;;;;;;1.20;1.20;;;;;;;;;;5055437;28;20234;-89
2022/05/21 01:25:34;;;;;;;2.00;1.30;;;;;;;;;;5055657;28;20226;-89
2022/05/21 01:28:02;;;;;;;3.80;1.43;;;;;;;;;;5055368;28;20210;-89
2022/05/21 01:30:32;;;;;;;1.10;1.10;;;;;;;;;;5055838;28;20195;-90
2022/05/21 01:32:59;;;;;;;1.50;1.40;;;;;;;;;;5055251;28;20240;-90
2022/05/21 01:35:26;;;;;;;1.47;1.23;;;;;;;;;;5055484;28;20210;-89
2022/05/21 01:37:53;;;;;;;1.30;1.20;;;;;;;;;;5055141;28;20214;-89
2022/05/21 01:40:22;;;;;;;2.73;1.30;;;;;;;;;;5055486;28;20245;-89
2022/05/21 01:44:37;;;;;;;2.53;1.50;;;;;;;;;;5054360;28;20284;-90
2022/05/21 01:45:39;;;;;;;1.30;1.20;;;;;;;;;;5054634;28;20598;-89
2022/05/21 01:48:18;;;;;;;1.50;1.40;;;;;;;;;;5054485;28;20230;-90
2022/05/21 01:53:51;;;;;;;1.83;1.50;;;;;;;;;;5052734;28;20244;-89
2022/05/21 01:56:20;;;;;;;5.47;1.60;;;;;;;;;;5042431;28;20671;-89
2022/05/21 01:58:47;;;;;;;1.50;1.37;;;;;;;;;;5034618;28;20233;-89
2022/05/21 02:01:14;;;;;;;1.80;1.50;;;;;;;;;;5051628;28;20278;-89
2022/05/21 02:03:41;;;;;;;1.97;1.47;;;;;;;;;;5054241;28;20236;-89
2022/05/21 02:06:08;;;;;;;2.20;1.50;;;;;;;;;;5054790;28;20234;-90
2022/05/21 02:08:35;;;;;;;1.57;1.47;;;;;;;;;;5054486;28;20238;-89
2022/05/21 02:11:02;;;;;;;2.80;1.33;;;;;;;;;;5054993;28;20631;-89
2022/05/21 02:13:32;;;;;;;5.37;1.77;;;;;;;;;;5055640;28;20229;-88
2022/05/21 02:15:59;;;;;;;2.13;1.33;;;;;;;;;;5057530;28;20208;-89
2022/05/21 02:18:27;;;;;;;2.80;1.30;;;;;;;;;;5055226;28;20238;-89
2022/05/21 02:20:54;;;;;;;2.10;1.67;;;;;;;;;;5054911;28;20558;-89
2022/05/21 02:23:21;;;;;;;1.70;1.60;;;;;;;;;;5054496;28;20257;-90
2022/05/21 02:25:49;;;;;;;1.90;1.73;;;;;;;;;;5060098;28;20225;-90
2022/05/21 02:28:16;;;;;;;6.07;1.90;;;;;;;;;;5074996;28;20229;-90
2022/05/21 02:30:45;;;;;;;2.30;1.63;;;;;;;;;;5069447;28;20206;-89
2022/05/21 02:33:15;;;;;;;3.00;1.83;;;;;;;;;;5057663;28;20230;-89
2022/05/21 02:35:42;;;;;;;4.13;2.20;;;;;;;;;;5057468;28;20807;-89
2022/05/21 02:40:54;;;;;;;10.60;3.13;;;;;;;;;;5057037;28;20206;-89
2022/05/21 02:43:22;;;;;;;4.53;2.67;;;;;;;;;;5056767;28;20304;-90
2022/05/21 02:45:52;;;;;;;2.47;2.27;;;;;;;;;;5056616;28;20589;-89
2022/05/21 02:48:19;;;;;;;2.60;2.37;;;;;;;;;;5054721;28;20230;-90
2022/05/21 02:50:46;;;;;;;4.33;2.60;;;;;;;;;;5054637;28;20261;-89
2022/05/21 02:53:16;;;;;;;3.60;2.67;;;;;;;;;;5054169;28;20233;-89
2022/05/21 02:55:43;;;;;;;3.50;2.40;;;;;;;;;;5054262;28;20206;-91
2022/05/21 02:58:10;;;;;;;2.70;2.50;;;;;;;;;;5054076;28;20234;-89
2022/05/21 03:00:37;;;;;;;4.53;2.93;;;;;;;;;;5054178;28;20202;-89
2022/05/21 03:03:06;;;;;;;3.47;2.53;;;;;;;;;;5053691;28;20238;-90
2022/05/21 03:05:33;;;;;;;3.00;2.70;;;;;;;;;;5054271;28;20230;-89
2022/05/21 03:10:20;;;;;;;3.00;2.60;;;;;;;;;;5053527;28;20206;-89
2022/05/21 03:10:47;;;;;;;2.90;2.70;;;;;;;;;;5054047;28;20580;-90
2022/05/21 03:13:14;;;;;;;4.70;2.70;;;;;;;;;;5053630;28;20652;-90
2022/05/21 03:15:41;;;;;;;3.53;2.97;;;;;;;;;;5053887;28;20224;-89
2022/05/21 03:18:11;;;;;;;3.77;3.20;;;;;;;;;;5053641;28;20234;-89
2022/05/21 03:20:38;;;;;;;6.33;3.07;;;;;;;;;;5054093;28;20213;-89
2022/05/21 03:23:05;;;;;;;4.27;3.00;;;;;;;;;;5052894;28;20713;-89
2022/05/21 03:25:32;;;;;;;3.60;3.30;;;;;;;;;;5052538;28;20225;-89
2022/05/21 03:28:00;;;;;;;4.53;3.60;;;;;;;;;;5053063;28;20612;-89
2022/05/21 03:33:31;;;;;;;4.60;3.57;;;;;;;;;;5045441;28;20707;-89
2022/05/21 03:39:02;;;;;;;4.30;3.90;;;;;;;;;;5032296;28;20225;-89
2022/05/21 03:41:29;;;;;;;4.03;3.63;;;;;;;;;;5033507;28;20645;-89
2022/05/21 03:43:58;;;;;;;4.70;4.30;;;;;;;;;;5033004;28;20325;-88
2022/05/21 03:46:25;;;;;;;4.40;4.00;;;;;;;;;;5033547;28;20254;-89
2022/05/21 03:48:54;;;;;;;4.50;4.10;;;;;;;;;;5033036;28;20237;-89
2022/05/21 03:51:21;;;;;;;4.47;4.13;;;;;;;;;;5033413;28;20223;-90
2022/05/21 03:53:48;;;;;;;6.07;4.40;;;;;;;;;;5033153;28;20253;-89
2022/05/21 03:56:15;;;;;;;5.33;4.43;;;;;;;;;;5033413;28;20206;-89
2022/05/21 03:58:42;;;;;;;5.47;4.83;;;;;;;;;;5032860;28;20230;-88
2022/05/21 04:01:09;;;;;;;7.20;4.57;;;;;;;;;;5032809;28;20718;-90
2022/05/21 04:03:37;;;;;;;6.10;4.37;;;;;;;;;;5032493;28;20236;-89
2022/05/21 04:06:06;;;;;;;6.03;4.87;;;;;;;;;;5033116;28;20651;-89
2022/05/21 04:08:33;;;;;;;6.97;4.67;;;;;;;;;;5032734;28;20238;-89
2022/05/21 04:11:00;;;;;;;5.93;4.53;;;;;;;;;;5032924;28;20226;-89
2022/05/21 04:13:27;;;;;;;8.07;4.87;;;;;;;;;;5032754;28;20234;-88
2022/05/21 04:15:55;;;;;;;5.33;4.83;;;;;;;;;;5033086;28;20230;-90
2022/05/21 04:18:22;;;;;;;6.13;4.73;;;;;;;;;;5032967;28;20258;-88
2022/05/21 04:20:49;;;;;;;5.33;4.83;;;;;;;;;;5034834;28;20229;-89
2022/05/21 04:23:18;;;;;;;5.53;4.93;;;;;;;;;;5044458;28;20702;-88
2022/05/21 04:25:46;;;;;;;9.93;4.53;;;;;;;;;;5035481;28;20281;-87
2022/05/21 04:28:13;;;;;;;5.73;4.20;;;;;;;;;;5044556;28;20238;-89
2022/05/21 04:30:41;;;;;;;7.17;4.80;;;;;;;;;;5038158;28;20213;-88
2022/05/21 04:33:08;;;;;;;7.13;4.10;;;;;;;;;;5037954;28;20234;-88
2022/05/21 04:38:21;;;;;;;4.40;3.70;;;;;;;;;;5036460;28;20293;-89
2022/05/21 04:40:48;;;;;;;4.50;3.93;;;;;;;;;;5036464;28;20202;-89
2022/05/21 04:43:15;;;;;;;3.90;3.50;;;;;;;;;;5036147;28;20234;-89
2022/05/21 04:45:42;;;;;;;5.47;3.67;;;;;;;;;;5037003;28;20598;-89
2022/05/21 04:48:10;;;;;;;4.00;3.60;;;;;;;;;;5036447;28;20230;-88
2022/05/21 04:50:38;;;;;;;6.60;3.30;;;;;;;;;;5037194;28;20226;-89
2022/05/21 04:53:06;;;;;;;6.03;3.90;;;;;;;;;;5046988;28;20293;-89
2022/05/21 04:55:34;;;;;;;5.13;3.43;;;;;;;;;;5036725;28;20211;-89
2022/05/21 04:58:01;;;;;;;4.73;3.27;;;;;;;;;;5036446;28;20238;-89
2022/05/21 05:00:28;;;;;;;4.40;3.67;;;;;;;;;;5044363;28;20206;-91
2022/05/21 05:02:55;;;;;;;4.53;3.90;;;;;;;;;;5040702;28;20231;-89
2022/05/21 05:05:23;;;;;;;7.67;3.37;;;;;;;;;;5036717;28;20214;-88
2022/05/21 05:07:50;;;;;;;4.30;3.57;;;;;;;;;;5039714;28;20230;-88
2022/05/21 05:10:17;;;;;;;3.67;3.33;;;;;;;;;;5041216;28;20256;-88
2022/05/21 05:12:46;;;;;;;3.60;3.30;;;;;;;;;;5039310;28;20229;-88
2022/05/21 05:15:13;;;;;;;7.70;3.30;;;;;;;;;;5038211;28;20210;-88
2022/05/21 05:17:40;;;;;;;5.33;3.50;;;;;;;;;;5039413;28;20978;-89
2022/05/21 05:20:08;;;;;;;3.87;3.57;;;;;;;;;;5039839;28;20230;-89
2022/05/21 05:22:35;;;;;;;4.23;3.60;;;;;;;;;;5041653;28;20234;-88
2022/05/21 05:25:04;;;;;;;5.17;3.23;;;;;;;;;;5039577;28;20254;-88
2022/05/21 05:27:31;;;;;;;4.40;3.03;;;;;;;;;;5038093;28;20227;-89
2022/05/21 05:30:00;;;;;;;4.23;3.00;;;;;;;;;;5037777;28;20231;-88
2022/05/21 05:32:27;;;;;;;4.27;3.13;;;;;;;;;;5037885;28;20227;-88
2022/05/21 05:34:54;;;;;;;4.57;2.90;;;;;;;;;;5037196;28;20231;-88
2022/05/21 05:37:21;;;;;;;4.10;2.67;;;;;;;;;;5042303;28;20617;-88
2022/05/21 05:39:48;;;;;;;3.57;2.50;;;;;;;;;;5041656;28;20242;-88
2022/05/21 05:42:17;;;;;;;3.47;2.53;;;;;;;;;;5040989;28;20223;-88
2022/05/21 05:44:44;;;;;;;3.50;2.40;;;;;;;;;;5038656;28;20245;-88
2022/05/21 05:47:15;;;;;;;3.53;2.47;;;;;;;;;;5041455;28;20207;-88
2022/05/21 05:49:42;;;;;;;3.97;2.37;;;;;;;;;;5040740;28;20639;-88
2022/05/21 05:52:10;;;;;;;4.03;2.43;;;;;;;;;;5040211;28;20583;-88
2022/05/21 05:54:37;;;;;;;2.80;2.23;;;;;;;;;;5038290;28;20238;-88
2022/05/21 05:57:09;;;;;;;5.97;2.20;;;;;;;;;;5039403;28;20247;-87
2022/05/21 05:59:51;;;;;;;2.40;2.03;;;;;;;;;;5042051;28;20705;-86
2022/05/21 06:05:05;;;;;;;2.77;1.90;;;;;;;;;;5055027;28;20240;-85
2022/05/21 06:07:33;;;;;;;7.60;2.03;;;;;;;;;;5054476;28;20230;-85
2022/05/21 06:10:02;;;;;;;5.17;1.90;;;;;;;;;;5053894;28;20284;-86
2022/05/21 06:12:30;;;;;;;1.83;1.70;;;;;;;;;;5054528;28;20261;-86
2022/05/21 06:14:57;;;;;;;1.70;1.60;;;;;;;;;;5053438;28;20237;-86
2022/05/21 06:17:25;;;;;;;2.70;2.17;;;;;;;;;;5054710;28;20205;-85
2022/05/21 06:19:53;;;;;;;1.80;1.53;;;;;;;;;;5056008;28;20241;-86
2022/05/21 06:22:21;;;;;;;2.73;1.60;;;;;;;;;;5061337;28;20237;-86
2022/05/21 06:24:48;;;;;;;5.00;1.80;;;;;;;;;;5069514;28;20331;-88
2022/05/21 06:27:16;;;;;;;1.60;1.47;;;;;;;;;;5064101;28;20285;-86
2022/05/21 06:29:43;;;;;;;1.50;1.40;;;;;;;;;;5053636;28;20234;-86
2022/05/21 06:32:11;;;;;;;3.63;1.37;;;;;;;;;;5053789;28;20713;-85
2022/05/21 06:34:39;;;;;;;5.40;2.17;;;;;;;;;;5054078;28;20234;-86
2022/05/21 06:37:07;;;;;;;2.60;1.50;;;;;;;;;;5054680;28;20395;-86
2022/05/21 06:39:34;;;;;;;2.93;1.40;;;;;;;;;;5053688;28;20237;-86
2022/05/21 06:42:02;;;;;;;4.80;1.70;;;;;;;;;;5053814;28;20230;-86
2022/05/21 06:44:29;;;;;;;4.57;1.80;;;;;;;;;;5054116;28;20265;-85
2022/05/21 06:46:56;;;;;;;3.30;2.93;;;;;;;;;;5053545;28;20226;-86
2022/05/21 06:49:26;;;;;;;3.10;1.70;;;;;;;;;;5053241;28;20241;-86
2022/05/21 06:51:55;;;;;;;1.50;1.40;;;;;;;;;;5054791;28;20594;-86
2022/05/21 06:54:22;;;;;;;2.10;1.45;;;;;;;;;;5053666;28;20257;-85
2022/05/21 06:56:50;;;;;;;27.08;3.45;;;;;;;;;;5053890;28;20191;-86
2022/05/21 06:59:17;;;;;;;2.88;1.55;;;;;;;;;;5053503;28;20249;-86
2022/05/21 07:01:44;;;;;;;2.88;1.20;;;;;;;;;;5054241;28;20248;-85
2022/05/21 07:04:13;;;;;;;4.28;1.50;;;;;;;;;;5048323;28;20230;-86
2022/05/21 07:09:27;;;;;;;2.97;1.20;;;;;;;;;;5033449;28;20741;-86
2022/05/21 07:11:54;;;;;;;3.97;1.30;;;;;;;;;;5053375;28;20226;-87
2022/05/21 07:17:24;;;;;;;3.78;1.80;;;;;;;;;;5046209;28;20606;-87
2022/05/21 07:19:54;;;;;;;7.10;1.60;;;;;;;;;;5043218;28;20300;-83
2022/05/21 07:22:22;;;;;;;3.83;1.23;;;;;;;;;;5088073;22;20401;-83
2022/05/21 07:24:50;;;;;;;1.70;1.17;;;;;;;;;;5073603;28;20284;-85
2022/05/21 07:27:17;;;;;;;1.80;1.10;;;;;;;;;;5071250;28;20221;-84
2022/05/21 07:29:45;;;;;;;1.63;1.25;;;;;;;;;;5071869;28;20759;-84
2022/05/21 07:32:19;;;;;;;2.70;1.23;;;;;;;;;;5072029;28;20256;-83
2022/05/21 07:34:46;;;;;;;2.08;0.90;;;;;;;;;;5071574;28;20236;-83
2022/05/21 07:37:13;;;;;;;3.40;1.20;;;;;;;;;;5072268;28;20752;-84
2022/05/21 07:39:41;;;;;;;1.17;0.88;;;;;;;;;;5071612;28;20233;-85
2022/05/21 07:42:09;;;;;;;3.33;1.23;;;;;;;;;;5071887;28;20739;-84
2022/05/21 07:44:36;;;;;;;1.98;1.20;;;;;;;;;;5070880;28;20241;-85
2022/05/21 07:47:03;;;;;;;4.65;1.30;;;;;;;;;;5071823;28;20275;-84
2022/05/21 07:49:30;;;;;;;2.83;1.15;;;;;;;;;;5071518;28;20240;-87
2022/05/21 07:51:58;;;;;;;1.88;1.20;;;;;;;;;;5072031;28;20279;-84
2022/05/21 07:54:25;;;;;;;4.90;1.25;;;;;;;;;;5071596;28;20233;-84
2022/05/21 07:56:52;;;;;;;2.50;1.30;;;;;;;;;;5072216;28;20201;-85
2022/05/21 07:59:21;;;;;;;2.58;1.02;;;;;;;;;;5074281;28;20246;-85
2022/05/21 08:01:49;;;;;;;3.85;1.40;;;;;;;;;;5075046;28;20225;-85
2022/05/21 08:04:18;;;;;;;4.97;1.48;;;;;;;;;;5071306;28;20303;-85
2022/05/21 08:06:45;;;;;;;1.25;1.15;;;;;;;;;;5071715;28;20257;-85
2022/05/21 08:09:12;;;;;;;2.78;1.38;;;;;;;;;;5071195;28;20252;-84
2022/05/21 08:11:39;;;;;;;1.40;1.25;;;;;;;;;;5073405;28;20219;-84
2022/05/21 08:14:06;;;;;;;2.58;1.55;;;;;;;;;;5075276;28;20241;-84
2022/05/21 08:16:36;;;;;;;5.32;1.38;;;;;;;;;;5079553;28;20225;-85
2022/05/21 08:19:04;;;;;;;2.67;1.17;;;;;;;;;;5077290;28;20237;-84
2022/05/21 08:21:32;;;;;;;3.58;1.20;;;;;;;;;;5076802;28;20560;-85
2022/05/21 08:26:59;;;;;;;2.45;0.95;;;;;;;;;;5076602;28;20231;-86
2022/05/21 08:29:27;;;;;;;2.97;1.02;;;;;;;;;;5075688;28;20263;-85
2022/05/21 08:31:55;;;;;;;3.40;1.00;;;;;;;;;;5075718;28;20229;-85
2022/05/21 08:34:22;;;;;;;3.10;1.17;;;;;;;;;;5075709;28;20806;-85
2022/05/21 08:36:50;;;;;;;1.88;1.33;;;;;;;;;;5075718;28;20209;-83
2022/05/21 08:39:17;;;;;;;3.20;1.00;;;;;;;;;;5076112;28;20237;-86
2022/05/21 08:41:46;;;;;;;4.15;1.30;;;;;;;;;;5076941;28;20354;-86
2022/05/21 08:44:19;;;;;;;3.15;0.95;;;;;;;;;;5075440;28;20312;-86
2022/05/21 08:46:50;;;;;;;3.50;1.38;;;;;;;;;;5076231;28;20200;-85
2022/05/21 08:49:24;;;;;;;2.20;0.90;;;;;;;;;;5075080;28;20232;-85
2022/05/21 08:51:57;;;;;;;1.45;1.00;;;;;;;;;;5075531;28;20320;-83
2022/05/21 08:54:27;;;;;;;3.60;1.17;;;;;;;;;;5074844;28;20324;-84
2022/05/21 08:56:56;;;;;;;2.95;1.33;;;;;;;;;;5075257;28;20189;-83
2022/05/21 08:59:26;;;;;;;2.65;1.40;;;;;;;;;;5074694;28;20225;-83
2022/05/21 09:01:54;;;;;;;2.03;0.88;;;;;;;;;;5074841;28;20236;-84
2022/05/21 09:04:23;;;;;;;1.88;1.08;;;;;;;;;;5074106;28;20233;-83
2022/05/21 09:06:53;;;;;;;4.88;1.40;;;;;;;;;;5075112;28;20193;-83
2022/05/21 09:09:26;;;;;;;1.85;1.05;;;;;;;;;;5074434;28;20251;-83
2022/05/21 09:11:57;;;;;;;2.42;1.02;;;;;;;;;;5075819;28;20225;-85
2022/05/21 09:14:29;;;;;;;3.17;1.25;;;;;;;;;;5074105;28;20283;-83
2022/05/21 09:16:55;;;;;;;3.72;1.20;;;;;;;;;;5074874;28;20564;-84
2022/05/21 09:19:24;;;;;;;3.03;1.40;;;;;;;;;;5074227;28;20275;-84
2022/05/21 09:21:56;;;;;;;2.35;1.10;;;;;;;;;;5073882;28;20752;-84
2022/05/21 09:24:37;;;;;;;2.38;0.95;;;;;;;;;;5073629;28;20784;-84
2022/05/21 09:27:05;;;;;;;1.67;1.00;;;;;;;;;;5075983;28;20225;-84
2022/05/21 09:29:34;;;;;;;1.40;0.90;;;;;;;;;;5074752;28;20229;-84
2022/05/21 09:32:16;;;;;;;1.25;0.93;;;;;;;;;;5075380;28;20225;-82
2022/05/21 09:34:45;;;;;;;2.17;1.42;;;;;;;;;;5073157;28;20225;-85
2022/05/21 09:37:16;;;;;;;3.40;1.10;;;;;;;;;;5075490;28;20201;-82
2022/05/21 09:39:43;;;;;;;1.98;0.85;;;;;;;;;;5077070;28;20313;-83
2022/05/21 09:45:21;;;;;;;2.65;1.02;;;;;;;;;;5076358;28;20229;-82
2022/05/21 09:47:48;;;;;;;4.75;1.15;;;;;;;;;;5071014;28;20235;-82
2022/05/21 09:50:21;;;;;;;2.30;1.10;;;;;;;;;;5076589;28;20615;-82
2022/05/21 09:52:49;;;;;;;2.08;1.08;;;;;;;;;;5075295;28;20279;-81
2022/05/21 09:55:20;;;;;;;3.05;1.33;;;;;;;;;;5075812;28;20295;-84
2022/05/21 09:57:47;;;;;;;2.55;1.10;;;;;;;;;;5074847;28;20576;-82
2022/05/21 10:00:18;;;;;;;2.25;1.00;;;;;;;;;;5075855;28;20559;-82
2022/05/21 10:02:46;;;;;;;3.50;1.00;;;;;;;;;;5073432;28;20222;-83
2022/05/21 10:05:15;;;;;;;2.83;1.60;;;;;;;;;;5078265;28;20201;-83
2022/05/21 10:13:16;;;;;;;3.75;1.10;;;;;;;;;;5067578;28;20232;-83
2022/05/21 10:15:46;;;;;;;4.50;1.30;;;;;;;;;;5072957;28;20255;-83
2022/05/21 10:18:15;;;;;;;2.88;1.27;;;;;;;;;;5073159;28;20229;-83
2022/05/21 10:20:43;;;;;;;1.48;0.82;;;;;;;;;;5073631;28;20252;-84
2022/05/21 10:23:17;;;;;;;2.45;1.05;;;;;;;;;;5073389;28;20643;-82
2022/05/21 10:25:50;;;;;;;2.33;1.25;;;;;;;;;;5074023;28;20232;-83
2022/05/21 10:28:31;;;;;;;3.80;1.33;;;;;;;;;;5073439;28;20236;-82
2022/05/21 10:31:06;;;;;;;2.10;1.20;;;;;;;;;;5073738;28;20621;-83
2022/05/21 10:33:39;;;;;;;4.00;1.20;;;;;;;;;;5072810;28;20232;-81
2022/05/21 10:36:12;;;;;;;2.60;1.17;;;;;;;;;;5074380;28;20280;-83
2022/05/21 10:38:52;;;;;;;3.15;1.33;;;;;;;;;;5073139;28;20296;-83
2022/05/21 10:41:25;;;;;;;3.45;1.23;;;;;;;;;;5073839;28;20200;-82
2022/05/21 10:44:01;;;;;;;1.92;1.08;;;;;;;;;;5072689;28;20767;-85
2022/05/21 10:46:36;;;;;;;2.95;1.10;;;;;;;;;;5061182;28;20622;-82
2022/05/21 10:49:11;;;;;;;3.33;1.30;;;;;;;;;;5052346;28;20339;-83
2022/05/21 10:51:41;;;;;;;2.85;1.02;;;;;;;;;;5053617;28;20636;-82
2022/05/21 10:54:29;;;;;;;1.98;1.10;;;;;;;;;;5054249;28;20241;-82
2022/05/21 10:57:04;;;;;;;3.28;1.35;;;;;;;;;;5055165;28;20264;-84
2022/05/21 10:59:49;;;;;;;2.78;1.15;;;;;;;;;;5053766;28;20712;-82
2022/05/21 11:02:22;;;;;;;3.47;1.20;;;;;;;;;;5055266;28;20253;-82
2022/05/21 11:04:56;;;;;;;1.98;1.30;;;;;;;;;;5053682;28;20265;-83
2022/05/21 11:07:38;;;;;;;3.70;1.15;;;;;;;;;;5054678;28;20225;-81
2022/05/21 11:10:12;;;;;;;3.42;1.33;;;;;;;;;;5050864;28;20271;-82
2022/05/21 11:12:45;;;;;;;1.67;1.00;;;;;;;;;;5053343;28;20276;-81
2022/05/21 11:15:15;;;;;;;2.33;1.20;;;;;;;;;;5052965;28;20264;-83
2022/05/21 11:17:46;;;;;;;2.45;1.27;;;;;;;;;;5052162;28;20233;-84
2022/05/21 11:20:16;;;;;;;1.95;1.30;;;;;;;;;;5050893;28;20293;-84
2022/05/21 11:22:46;;;;;;;1.75;1.17;;;;;;;;;;5051429;28;20233;-85
2022/05/21 11:25:17;;;;;;;3.17;1.42;;;;;;;;;;5052397;28;20260;-84
2022/05/21 11:27:47;;;;;;;2.67;1.05;;;;;;;;;;5052794;28;20609;-84
2022/05/21 11:30:18;;;;;;;4.05;1.45;;;;;;;;;;5052586;28;20270;-84
2022/05/21 11:38:21;;;;;;;1.38;0.95;;;;;;;;;;5053867;28;20286;-84
2022/05/21 11:43:56;;;;;;;1.55;1.05;;;;;;;;;;5052334;28;20233;-84
2022/05/21 11:46:34;;;;;;;1.67;1.17;;;;;;;;;;5064932;28;20208;-85
2022/05/21 11:49:16;;;;;;;1.63;0.95;;;;;;;;;;5052672;28;20241;-84
2022/05/21 11:51:44;;;;;;;1.75;1.02;;;;;;;;;;5053098;28;20233;-85
2022/05/21 11:54:31;;;;;;;3.30;1.30;;;;;;;;;;5052356;28;20238;-83
2022/05/21 11:57:03;;;;;;;5.65;1.30;;;;;;;;;;5052594;28;20206;-84
2022/05/21 11:59:49;;;;;;;2.65;1.20;;;;;;;;;;5052374;28;20702;-84
2022/05/21 12:02:22;;;;;;;2.92;1.40;;;;;;;;;;5053132;28;20230;-85
2022/05/21 12:05:04;;;;;;;2.65;1.40;;;;;;;;;;5053241;28;20238;-85
2022/05/21 12:07:50;;;;;;;2.55;1.10;;;;;;;;;;5051855;28;20244;-85
2022/05/21 12:10:20;;;;;;;2.58;1.40;;;;;;;;;;5067875;28;20218;-84
2022/05/21 12:13:10;;;;;;;1.27;1.13;;;;;;;;;;5067657;28;20222;-85
2022/05/21 12:15:39;;;;;;;1.95;1.25;;;;;;;;;;5057281;28;20651;-85
2022/05/21 12:18:09;;;;;;;3.22;1.25;;;;;;;;;;5054515;28;20290;-84
2022/05/21 12:20:44;;;;;;;2.75;1.15;;;;;;;;;;5055053;28;20198;-84
2022/05/21 12:23:14;;;;;;;2.80;0.88;;;;;;;;;;5054013;28;20232;-84
2022/05/21 12:25:57;;;;;;;1.15;0.90;;;;;;;;;;5053869;28;20628;-84
2022/05/21 12:28:27;;;;;;;1.02;0.90;;;;;;;;;;5052453;28;20311;-85
2022/05/21 12:31:06;;;;;;;1.38;0.80;;;;;;;;;;5055186;28;20205;-84
2022/05/21 12:33:39;;;;;;;1.45;0.88;;;;;;;;;;5052203;28;20237;-84
2022/05/21 12:36:09;;;;;;;2.70;1.13;;;;;;;;;;5053335;28;20599;-85
2022/05/21 12:38:38;;;;;;;0.77;0.70;;;;;;;;;;5052646;28;20263;-84
2022/05/21 12:41:09;;;;;;;1.02;0.90;;;;;;;;;;5052306;28;20210;-85
2022/05/21 12:43:44;;;;;;;1.10;0.95;;;;;;;;;;5052394;28;20230;-84
2022/05/21 12:46:22;;;;;;;2.38;0.95;;;;;;;;;;5053308;28;20206;-85
2022/05/21 12:48:50;;;;;;;2.25;1.38;;;;;;;;;;5051598;28;20237;-85
2022/05/21 12:51:31;;;;;;;4.40;1.10;;;;;;;;;;5052464;28;20289;-85
2022/05/21 12:53:59;;;;;;;3.85;1.27;;;;;;;;;;5051592;28;20571;-85
2022/05/21 12:56:27;;;;;;;4.50;1.05;;;;;;;;;;5052518;28;20221;-85
2022/05/21 12:59:10;;;;;;;1.23;0.90;;;;;;;;;;5054777;28;20601;-85
2022/05/21 13:01:43;;;;;;;3.13;0.90;;;;;;;;;;5055897;28;20218;-85
2022/05/21 13:04:22;;;;;;;2.80;0.90;;;;;;;;;;5056229;28;20229;-85
2022/05/21 13:06:51;;;;;;;2.28;0.80;;;;;;;;;;5056399;28;20201;-85
2022/05/21 13:09:18;;;;;;;1.35;1.05;;;;;;;;;;5062660;28;20230;-84
2022/05/21 13:11:47;;;;;;;2.95;1.20;;;;;;;;;;5055818;28;20218;-84
2022/05/21 13:14:23;;;;;;;0.75;0.75;;;;;;;;;;5058310;28;20241;-84
2022/05/21 13:16:52;;;;;;;2.08;1.10;;;;;;;;;;5058551;28;20186;-84
2022/05/21 13:19:39;;;;;;;1.02;0.80;;;;;;;;;;5055215;28;20292;-84
2022/05/21 13:22:10;;;;;;;1.65;0.80;;;;;;;;;;5076835;23;20237;-87
2022/05/21 13:24:41;;;;;;;2.80;0.98;;;;;;;;;;5046401;28;20234;-87
2022/05/21 13:27:10;;;;;;;2.83;1.48;;;;;;;;;;5055270;28;20290;-86
2022/05/21 13:29:39;;;;;;;1.85;1.02;;;;;;;;;;5055883;28;20296;-85
2022/05/21 13:32:18;;;;;;;2.88;1.13;;;;;;;;;;5060156;28;20227;-84
2022/05/21 13:34:45;;;;;;;1.77;1.13;;;;;;;;;;5059632;28;20234;-85
2022/05/21 13:37:12;;;;;;;2.25;1.33;;;;;;;;;;5059057;28;20228;-85
2022/05/21 13:39:40;;;;;;;1.50;0.88;;;;;;;;;;5054584;28;20287;-84
2022/05/21 13:42:08;;;;;;;2.20;0.80;;;;;;;;;;5054529;28;20650;-85
2022/05/21 13:44:35;;;;;;;1.45;0.88;;;;;;;;;;5054143;28;20233;-86
2022/05/21 13:47:06;;;;;;;2.75;1.27;;;;;;;;;;5054852;28;20206;-86
2022/05/21 13:49:37;;;;;;;2.40;0.90;;;;;;;;;;5054194;28;20234;-86
2022/05/21 13:52:05;;;;;;;1.75;0.55;;;;;;;;;;5054807;28;20230;-86
2022/05/21 13:54:34;;;;;;;0.75;0.75;;;;;;;;;;5053932;28;20293;-86
2022/05/21 13:57:11;;;;;;;1.13;0.85;;;;;;;;;;5054462;28;20217;-86
2022/05/21 13:59:48;;;;;;;1.58;1.27;;;;;;;;;;5053863;28;20692;-86
2022/05/21 14:02:20;;;;;;;5.40;1.20;;;;;;;;;;5054621;28;20232;-87
2022/05/21 14:04:47;;;;;;;1.75;1.00;;;;;;;;;;5053685;28;20764;-86
2022/05/21 14:07:22;;;;;;;1.98;1.45;;;;;;;;;;5054552;28;20206;-86
2022/05/21 14:09:49;;;;;;;1.70;0.98;;;;;;;;;;5052788;28;20771;-86
2022/05/21 14:12:24;;;;;;;2.45;1.13;;;;;;;;;;5054382;28;20222;-86
2022/05/21 14:14:51;;;;;;;3.53;1.20;;;;;;;;;;5053883;28;20752;-86
2022/05/21 14:17:23;;;;;;;2.15;1.10;;;;;;;;;;5054984;28;20214;-86
2022/05/21 14:20:17;;;;;;;1.33;0.95;;;;;;;;;;5054102;28;20230;-87
2022/05/21 14:22:44;;;;;;;1.65;1.00;;;;;;;;;;5007303;28;20245;-86
2022/05/21 14:25:20;;;;;;;2.47;1.00;;;;;;;;;;5054516;28;20206;-86
2022/05/21 14:27:57;;;;;;;1.15;1.05;;;;;;;;;;5054275;28;20292;-87
2022/05/21 14:30:35;;;;;;;1.42;1.05;;;;;;;;;;5054308;28;20226;-87
2022/05/21 14:33:17;;;;;;;1.20;0.93;;;;;;;;;;5054139;28;20682;-86
2022/05/21 14:35:45;;;;;;;1.77;1.10;;;;;;;;;;5054616;28;20273;-87
2022/05/21 14:38:12;;;;;;;1.65;1.17;;;;;;;;;;5053593;28;20260;-87
2022/05/21 14:40:45;;;;;;;2.40;1.17;;;;;;;;;;5055020;28;20218;-87
2022/05/21 14:43:19;;;;;;;2.40;0.98;;;;;;;;;;5053387;28;20288;-86
2022/05/21 14:45:46;;;;;;;3.20;1.15;;;;;;;;;;5054020;28;20186;-86
2022/05/21 14:48:14;;;;;;;2.85;1.35;;;;;;;;;;5053661;28;20234;-85
2022/05/21 14:53:29;;;;;;;5.13;1.27;;;;;;;;;;5053991;28;20299;-86
2022/05/21 14:55:56;;;;;;;0.85;0.82;;;;;;;;;;5054376;28;20206;-87
2022/05/21 14:58:26;;;;;;;2.85;1.23;;;;;;;;;;5053549;28;20230;-87
2022/05/21 15:00:53;;;;;;;1.23;1.10;;;;;;;;;;5053965;28;20210;-87
2022/05/21 15:03:21;;;;;;;2.53;1.33;;;;;;;;;;5053120;28;20238;-87
2022/05/21 15:05:49;;;;;;;2.40;1.52;;;;;;;;;;5053689;28;20242;-87
2022/05/21 15:08:18;;;;;;;4.47;1.20;;;;;;;;;;5052836;28;20280;-86
2022/05/21 15:10:45;;;;;;;2.78;1.02;;;;;;;;;;5053270;28;20599;-87
2022/05/21 15:13:12;;;;;;;3.58;1.45;;;;;;;;;;5052652;28;20264;-87
2022/05/21 15:15:40;;;;;;;1.50;1.20;;;;;;;;;;5053130;28;20719;-85
2022/05/21 15:18:07;;;;;;;1.30;1.20;;;;;;;;;;5053023;28;20324;-86
2022/05/21 15:20:38;;;;;;;3.50;1.13;;;;;;;;;;5053384;28;20260;-86
2022/05/21 15:23:06;;;;;;;1.05;0.95;;;;;;;;;;5055111;28;20587;-86
2022/05/21 15:25:33;;;;;;;2.58;1.27;;;;;;;;;;5055975;28;20583;-86
2022/05/21 15:28:00;;;;;;;2.30;1.27;;;;;;;;;;5054060;28;20206;-86
2022/05/21 15:30:28;;;;;;;1.35;1.08;;;;;;;;;;5053653;28;20525;-86
2022/05/21 15:32:55;;;;;;;1.30;0.95;;;;;;;;;;5052683;28;20261;-86
2022/05/21 15:35:22;;;;;;;1.45;1.13;;;;;;;;;;5053464;28;20297;-87
2022/05/21 15:37:51;;;;;;;1.08;1.02;;;;;;;;;;5052858;28;20217;-87
2022/05/21 15:40:18;;;;;;;2.30;1.02;;;;;;;;;;5053281;28;20260;-88
2022/05/21 15:42:46;;;;;;;2.35;1.13;;;;;;;;;;5052120;28;20222;-86
2022/05/21 15:45:14;;;;;;;2.03;1.02;;;;;;;;;;5052710;28;20690;-86
2022/05/21 15:47:41;;;;;;;4.10;1.20;;;;;;;;;;5053072;28;20259;-86